createdAt,value
2022-11-18T00:02:06.530Z,19.10
2022-11-18T00:04:34.778Z,15.20
2022-11-18T00:07:03.148Z,13.03
2022-11-18T00:09:31.462Z,12.77
2022-11-18T00:12:16.894Z,10.90
2022-11-18T00:14:47.634Z,9.03
2022-11-18T00:17:15.989Z,9.63
2022-11-18T00:19:44.210Z,12.03
2022-11-18T00:22:14.783Z,12.87
2022-11-18T00:24:43.029Z,12.97
2022-11-18T00:27:16.403Z,14.63
2022-11-18T00:29:46.011Z,11.80
2022-11-18T00:32:14.219Z,10.07
2022-11-18T00:34:43.603Z,10.77
2022-11-18T00:37:11.824Z,14.43
2022-11-18T00:39:40.077Z,11.70
2022-11-18T00:42:29.089Z,10.97
2022-11-18T00:44:58.672Z,14.33
2022-11-18T00:47:26.865Z,13.30
2022-11-18T00:49:55.102Z,19.20
2022-11-18T00:52:23.391Z,29.13
2022-11-18T00:54:51.589Z,14.53
2022-11-18T00:57:19.798Z,16.00
2022-11-18T00:59:47.998Z,43.67
2022-11-18T01:02:17.558Z,16.93
2022-11-18T01:04:45.842Z,24.23
2022-11-18T01:07:14.160Z,22.63
2022-11-18T01:09:42.386Z,16.17
2022-11-18T01:12:32.743Z,35.60
2022-11-18T01:15:01.397Z,27.23
2022-11-18T01:17:33.251Z,23.63
2022-11-18T01:20:01.549Z,28.47
2022-11-18T01:22:29.800Z,21.07
2022-11-18T01:24:58.047Z,27.57
2022-11-18T01:27:26.329Z,21.63
2022-11-18T01:29:54.588Z,20.57
2022-11-18T01:32:25.069Z,23.47
2022-11-18T01:34:55.267Z,21.17
2022-11-18T01:37:23.507Z,21.83
2022-11-18T01:39:55.691Z,19.40
2022-11-18T01:42:23.894Z,17.47
2022-11-18T01:45:20.713Z,18.77
2022-11-18T01:47:52.927Z,19.00
2022-11-18T01:50:25.355Z,17.33
2022-11-18T01:52:55.618Z,18.60
2022-11-18T01:55:27.652Z,17.37
2022-11-18T01:58:03.329Z,19.57
2022-11-18T02:00:31.565Z,19.13
2022-11-18T02:03:02.377Z,16.93
2022-11-18T02:05:34.336Z,15.97
2022-11-18T02:08:09.464Z,21.07
2022-11-18T02:10:43.033Z,15.00
2022-11-18T02:13:12.002Z,15.27
2022-11-18T02:15:50.409Z,14.93
2022-11-18T02:18:27.299Z,12.73
2022-11-18T02:21:01.782Z,13.20
2022-11-18T02:24:18.971Z,13.53
2022-11-18T02:27:18.423Z,16.33
2022-11-18T02:29:57.320Z,18.57
2022-11-18T02:32:30.874Z,14.50
2022-11-18T02:35:06.318Z,14.00
2022-11-18T02:37:39.331Z,17.37
2022-11-18T02:40:14.854Z,16.00
2022-11-18T02:42:45.854Z,14.07
2022-11-18T02:45:18.442Z,14.43
2022-11-18T02:47:49.444Z,12.53
2022-11-18T02:50:22.497Z,14.47
2022-11-18T02:52:54.634Z,12.37
2022-11-18T02:56:13.955Z,11.40
2022-11-18T02:58:42.203Z,13.60
2022-11-18T03:01:37.569Z,15.50
2022-11-18T03:04:06.669Z,13.47
2022-11-18T03:06:38.367Z,15.40
2022-11-18T03:09:12.911Z,21.17
2022-11-18T03:11:49.714Z,15.70
2022-11-18T03:14:29.551Z,15.67
2022-11-18T03:17:01.616Z,15.07
2022-11-18T03:19:41.983Z,16.90
2022-11-18T03:22:18.879Z,13.17
2022-11-18T03:24:55.282Z,16.30
2022-11-18T03:27:38.146Z,16.57
2022-11-18T03:30:09.339Z,18.47
2022-11-18T03:32:43.202Z,20.33
2022-11-18T03:35:15.702Z,14.60
2022-11-18T03:37:45.355Z,15.13
2022-11-18T03:40:18.727Z,16.07
2022-11-18T03:42:50.522Z,17.07
2022-11-18T03:45:23.462Z,15.33
2022-11-18T03:47:58.033Z,29.27
2022-11-18T03:50:44.011Z,24.63
2022-11-18T03:53:13.220Z,12.97
2022-11-18T03:55:44.086Z,15.03
2022-11-18T03:58:18.358Z,11.60
2022-11-18T04:00:50.291Z,11.37
2022-11-18T04:03:20.568Z,11.30
2022-11-18T04:05:52.983Z,8.50
2022-11-18T04:08:25.808Z,12.67
2022-11-18T04:11:01.114Z,9.53
2022-11-18T04:13:33.840Z,17.13
2022-11-18T04:16:02.566Z,8.10
2022-11-18T04:18:33.334Z,7.83
2022-11-18T04:21:01.528Z,8.03
2022-11-18T04:23:29.829Z,13.50
2022-11-18T04:25:58.046Z,10.30
2022-11-18T04:28:26.300Z,13.23
2022-11-18T04:30:54.527Z,15.03
2022-11-18T04:33:22.746Z,12.37
2022-11-18T04:35:52.349Z,10.73
2022-11-18T04:38:22.055Z,9.73
2022-11-18T04:40:50.558Z,8.70
2022-11-18T04:43:18.785Z,7.90
2022-11-18T04:45:47.128Z,8.90
2022-11-18T04:48:16.055Z,10.07
2022-11-18T04:50:44.248Z,9.13
2022-11-18T04:53:13.897Z,10.57
2022-11-18T04:55:45.114Z,8.20
2022-11-18T04:58:13.352Z,7.83
2022-11-18T05:01:06.523Z,11.13
2022-11-18T05:03:34.916Z,15.20
2022-11-18T05:06:03.181Z,11.10
2022-11-18T05:08:33.039Z,12.33
2022-11-18T05:11:15.110Z,9.67
2022-11-18T05:13:43.353Z,14.30
2022-11-18T05:16:11.601Z,13.97
2022-11-18T05:18:39.814Z,41.37
2022-11-18T05:21:08.522Z,25.00
2022-11-18T05:23:38.137Z,19.07
2022-11-18T05:26:06.892Z,16.07
2022-11-18T05:28:35.598Z,14.87
2022-11-18T05:31:08.821Z,10.33
2022-11-18T05:33:37.506Z,17.40
2022-11-18T05:36:06.251Z,9.33
2022-11-18T05:38:35.036Z,9.13
2022-11-18T05:41:05.332Z,8.13
2022-11-18T05:43:33.146Z,10.30
2022-11-18T05:46:02.151Z,12.57
2022-11-18T05:48:30.706Z,49.80
2022-11-18T05:50:59.013Z,28.50
2022-11-18T05:53:27.297Z,19.67
2022-11-18T05:56:00.588Z,11.60
2022-11-18T05:58:30.389Z,9.40
2022-11-18T06:01:25.466Z,10.67
2022-11-18T06:03:54.083Z,10.03
2022-11-18T06:06:25.639Z,9.00
2022-11-18T06:09:01.501Z,20.00
2022-11-18T06:11:41.471Z,37.43
2022-11-18T06:14:16.469Z,7.40
2022-11-18T06:16:49.197Z,10.27
2022-11-18T06:19:18.513Z,12.67
2022-11-18T06:21:47.647Z,13.90
2022-11-18T06:24:16.499Z,20.77
2022-11-18T06:26:45.368Z,36.40
2022-11-18T06:29:26.031Z,33.47
2022-11-18T06:31:55.954Z,39.73
2022-11-18T06:34:24.520Z,24.50
2022-11-18T06:36:52.798Z,24.47
2022-11-18T06:39:21.286Z,64.00
2022-11-18T06:41:49.583Z,54.90
2022-11-18T06:44:18.206Z,26.57
2022-11-18T06:46:58.328Z,24.13
2022-11-18T06:49:27.736Z,19.43
2022-11-18T06:51:56.351Z,21.20
2022-11-18T06:54:24.602Z,22.70
2022-11-18T06:56:52.826Z,29.80
2022-11-18T06:59:24.496Z,23.40
2022-11-18T07:01:53.602Z,23.43
2022-11-18T07:04:22.070Z,17.97
2022-11-18T07:06:50.361Z,18.43
2022-11-18T07:09:19.048Z,19.83
2022-11-18T07:11:47.481Z,28.07
2022-11-18T07:14:15.769Z,18.77
2022-11-18T07:16:45.487Z,19.10
2022-11-18T07:19:15.269Z,17.83
2022-11-18T07:21:43.994Z,21.60
2022-11-18T07:24:14.239Z,36.83
2022-11-18T07:26:43.287Z,20.20
2022-11-18T07:29:11.799Z,18.60
2022-11-18T07:31:40.882Z,23.07
2022-11-18T07:34:10.557Z,23.47
2022-11-18T07:36:38.804Z,20.07
2022-11-18T07:39:08.324Z,18.93
2022-11-18T07:41:37.094Z,22.27
2022-11-18T07:44:07.411Z,22.03
2022-11-18T07:46:37.325Z,20.17
2022-11-18T07:49:07.317Z,19.30
2022-11-18T07:51:38.370Z,29.73
2022-11-18T07:54:10.978Z,21.63
2022-11-18T07:56:39.380Z,24.33
2022-11-18T07:59:09.083Z,20.40
2022-11-18T08:01:37.649Z,23.93
2022-11-18T08:04:07.396Z,26.97
2022-11-18T08:06:37.700Z,20.20
2022-11-18T08:09:07.202Z,23.10
2022-11-18T08:11:36.093Z,23.53
2022-11-18T08:14:04.441Z,20.20
2022-11-18T08:16:32.635Z,25.63
2022-11-18T08:19:01.497Z,24.97
2022-11-18T08:21:29.873Z,29.03
2022-11-18T08:24:00.034Z,21.40
2022-11-18T08:26:29.554Z,22.00
2022-11-18T08:28:59.027Z,24.53
2022-11-18T08:31:28.899Z,27.13
2022-11-18T08:33:57.571Z,34.33
2022-11-18T08:36:28.171Z,52.30
2022-11-18T08:38:57.555Z,32.90
2022-11-18T08:41:32.828Z,22.87
2022-11-18T08:44:01.161Z,34.43
2022-11-18T08:46:29.470Z,34.73
2022-11-18T08:48:57.791Z,33.43
2022-11-18T08:51:26.687Z,41.37
2022-11-18T08:54:19.958Z,83.57
2022-11-18T08:56:50.650Z,34.17
2022-11-18T08:59:19.339Z,30.60
2022-11-18T09:01:48.909Z,39.80
2022-11-18T09:04:23.170Z,59.57
2022-11-18T09:06:51.407Z,73.60
2022-11-18T09:09:19.866Z,61.67
2022-11-18T09:11:49.730Z,73.03
2022-11-18T09:17:07.771Z,53.00
2022-11-18T09:19:51.298Z,48.93
2022-11-18T09:22:21.003Z,57.30
2022-11-18T09:24:49.302Z,62.23
2022-11-18T09:27:18.949Z,60.13
2022-11-18T09:29:47.176Z,58.57
2022-11-18T09:32:15.429Z,50.50
2022-11-18T09:34:43.701Z,61.53
2022-11-18T09:37:12.967Z,58.33
2022-11-18T09:39:41.194Z,53.70
2022-11-18T09:42:29.269Z,50.60
2022-11-18T09:45:24.600Z,55.57
2022-11-18T09:47:53.485Z,46.73
2022-11-18T09:53:20.226Z,49.07
2022-11-18T09:55:50.030Z,44.73
2022-11-18T09:58:27.867Z,48.77
2022-11-18T10:00:56.139Z,50.20
2022-11-18T10:03:28.728Z,53.60
2022-11-18T10:06:03.728Z,51.33
2022-11-18T10:08:38.055Z,51.23
2022-11-18T10:11:13.730Z,60.20
2022-11-18T10:13:56.783Z,50.77
2022-11-18T10:16:37.148Z,54.10
2022-11-18T10:19:12.959Z,52.93
2022-11-18T10:21:51.599Z,56.90
2022-11-18T10:24:22.258Z,47.93
2022-11-18T10:26:56.768Z,48.03
2022-11-18T10:29:26.759Z,44.17
2022-11-18T10:32:03.755Z,45.50
2022-11-18T10:34:33.127Z,52.10
2022-11-18T10:37:03.064Z,51.47
2022-11-18T10:39:31.864Z,39.17
2022-11-18T10:42:03.482Z,40.67
2022-11-18T10:44:36.949Z,37.87
2022-11-18T10:47:23.973Z,30.67
2022-11-18T10:49:52.383Z,40.87
2022-11-18T10:52:21.379Z,36.60
2022-11-18T10:55:09.804Z,38.43
2022-11-18T10:57:43.442Z,38.63
2022-11-18T11:00:42.363Z,36.20
2022-11-18T11:03:37.621Z,33.80
2022-11-18T11:06:37.987Z,33.33
2022-11-18T11:09:10.099Z,34.17
2022-11-18T11:11:40.468Z,35.33
2022-11-18T11:14:24.642Z,36.10
2022-11-18T11:17:05.015Z,39.17
2022-11-18T11:19:43.108Z,44.53
2022-11-18T11:22:15.075Z,42.63
2022-11-18T11:24:43.498Z,35.80
2022-11-18T11:30:28.153Z,38.20
2022-11-18T11:33:19.895Z,38.47
2022-11-18T11:36:04.748Z,35.90
2022-11-18T11:38:44.431Z,37.00
2022-11-18T11:41:21.957Z,45.23
2022-11-18T11:44:07.802Z,34.57
2022-11-18T11:46:42.079Z,33.83
2022-11-18T11:49:19.746Z,28.90
2022-11-18T11:51:53.040Z,26.63
2022-11-18T11:54:45.490Z,20.40
2022-11-18T11:57:21.271Z,11.27
2022-11-18T11:59:57.031Z,5.00
2022-11-18T12:02:49.525Z,3.33
2022-11-18T12:05:25.385Z,3.53
2022-11-18T12:07:57.366Z,3.17
2022-11-18T12:10:31.715Z,3.37
2022-11-18T12:13:13.767Z,4.33
2022-11-18T12:16:03.084Z,3.73
2022-11-18T12:18:39.444Z,4.13
2022-11-18T12:21:09.079Z,3.40
2022-11-18T12:23:37.390Z,4.87
2022-11-18T12:26:07.671Z,4.30
2022-11-18T12:28:42.180Z,4.93
2022-11-18T12:31:36.367Z,5.13
2022-11-18T12:34:21.644Z,4.90
2022-11-18T12:36:51.291Z,3.47
2022-11-18T12:39:49.085Z,4.33
2022-11-18T12:42:54.377Z,3.40
2022-11-18T12:45:59.301Z,5.17
2022-11-18T12:48:48.323Z,5.00
2022-11-18T12:51:44.391Z,5.47
2022-11-18T12:54:36.278Z,2.83
2022-11-18T12:57:21.206Z,2.83
2022-11-18T12:59:49.976Z,2.70
2022-11-18T13:02:24.157Z,3.63
2022-11-18T13:08:17.058Z,4.47
2022-11-18T13:11:14.183Z,2.90
2022-11-18T13:13:43.409Z,2.97
2022-11-18T13:17:18.895Z,3.00
2022-11-18T13:19:57.190Z,3.50
2022-11-18T13:25:35.214Z,3.03
2022-11-18T13:28:16.125Z,3.30
2022-11-18T13:30:49.872Z,2.20
2022-11-18T13:33:18.248Z,2.10
2022-11-18T13:35:46.569Z,6.87
2022-11-18T13:38:28.062Z,3.70
2022-11-18T13:41:14.000Z,4.43
2022-11-18T13:43:43.568Z,4.80
2022-11-18T13:46:19.154Z,3.37
2022-11-18T13:48:50.572Z,9.53
2022-11-18T13:51:19.784Z,5.23
2022-11-18T13:53:48.724Z,7.60
2022-11-18T13:56:20.281Z,6.80
2022-11-18T14:01:48.402Z,5.43
2022-11-18T14:04:23.332Z,4.17
2022-11-18T14:06:51.828Z,5.07
2022-11-18T14:09:24.873Z,6.23
2022-11-18T14:12:01.980Z,5.63
2022-11-18T14:14:33.657Z,5.87
2022-11-18T14:17:16.020Z,3.67
2022-11-18T14:19:45.127Z,3.60
2022-11-18T14:22:16.523Z,3.97
2022-11-18T14:24:45.345Z,3.20
2022-11-18T14:27:37.456Z,2.90
2022-11-18T14:30:32.617Z,10.70
2022-11-18T14:33:18.729Z,3.23
2022-11-18T14:35:50.786Z,6.13
2022-11-18T14:38:44.030Z,4.03
2022-11-18T14:41:12.329Z,3.80
2022-11-18T14:43:40.799Z,3.43
2022-11-18T14:46:17.022Z,3.07
2022-11-18T14:48:45.714Z,3.10
2022-11-18T14:51:14.834Z,3.63
2022-11-18T14:53:43.424Z,2.97
2022-11-18T14:56:16.248Z,2.50
2022-11-18T14:58:44.541Z,3.73
2022-11-18T15:01:15.292Z,3.10
2022-11-18T15:03:43.572Z,2.50
2022-11-18T15:06:15.111Z,3.37
2022-11-18T15:08:44.118Z,4.47
2022-11-18T15:11:12.599Z,3.37
2022-11-18T15:13:41.464Z,3.70
2022-11-18T15:16:16.858Z,5.20
2022-11-18T15:18:46.677Z,5.47
2022-11-18T15:21:15.715Z,4.67
2022-11-18T15:23:43.960Z,5.30
2022-11-18T15:26:20.015Z,6.13
2022-11-18T15:28:48.532Z,5.93
2022-11-18T15:31:19.031Z,8.63
2022-11-18T15:33:48.561Z,6.83
2022-11-18T15:36:19.271Z,6.03
2022-11-18T15:38:48.464Z,6.53
2022-11-18T15:41:18.798Z,8.17
2022-11-18T15:43:47.308Z,8.87
2022-11-18T15:46:19.235Z,5.50
2022-11-18T15:48:48.396Z,6.63
2022-11-18T15:51:17.000Z,8.87
2022-11-18T15:53:45.293Z,6.97
2022-11-18T15:56:24.363Z,8.77
2022-11-18T15:58:56.743Z,4.57
2022-11-18T16:01:27.508Z,5.23
2022-11-18T16:03:56.276Z,6.77
2022-11-18T16:06:25.815Z,5.87
2022-11-18T16:09:19.242Z,8.00
2022-11-18T16:12:05.028Z,4.83
2022-11-18T16:14:33.306Z,9.00
2022-11-18T16:17:02.911Z,6.87
2022-11-18T16:19:33.568Z,5.90
2022-11-18T16:22:01.861Z,6.57
2022-11-18T16:24:30.636Z,4.77
2022-11-18T16:27:23.600Z,4.73
2022-11-18T16:29:51.936Z,5.93
2022-11-18T16:32:21.614Z,3.03
2022-11-18T16:34:49.835Z,6.07
2022-11-18T16:37:18.035Z,4.00
2022-11-18T16:39:46.278Z,5.70
2022-11-18T16:42:14.503Z,4.17
2022-11-18T16:44:43.755Z,4.63
2022-11-18T16:47:15.145Z,6.50
2022-11-18T16:49:45.081Z,4.43
2022-11-18T16:52:13.397Z,4.93
2022-11-18T16:54:45.578Z,3.77
2022-11-18T16:57:14.784Z,6.30
2022-11-18T16:59:43.005Z,8.53
2022-11-18T17:02:13.656Z,5.40
2022-11-18T17:04:42.311Z,3.50
2022-11-18T17:07:12.157Z,3.70
2022-11-18T17:09:40.932Z,4.13
2022-11-18T17:12:09.378Z,4.57
2022-11-18T17:14:38.646Z,6.77
2022-11-18T17:17:07.884Z,4.97
2022-11-18T17:19:48.770Z,3.23
2022-11-18T17:22:18.365Z,3.43
2022-11-18T17:24:46.724Z,4.37
2022-11-18T17:27:14.911Z,3.97
2022-11-18T17:29:43.116Z,4.07
2022-11-18T17:32:11.599Z,4.10
2022-11-18T17:34:39.853Z,4.53
2022-11-18T17:37:08.099Z,5.03
2022-11-18T17:39:37.734Z,4.33
2022-11-18T17:42:15.344Z,7.13
2022-11-18T17:44:43.660Z,4.10
2022-11-18T17:47:11.886Z,6.40
2022-11-18T17:49:40.191Z,3.77
2022-11-18T17:52:08.471Z,4.40
2022-11-18T17:54:38.065Z,4.13
2022-11-18T17:57:06.258Z,12.43
2022-11-18T17:59:34.575Z,6.93
2022-11-18T18:02:02.857Z,5.70
2022-11-18T18:04:32.394Z,7.27
2022-11-18T18:07:00.703Z,3.53
2022-11-18T18:09:31.300Z,3.60
2022-11-18T18:12:21.810Z,5.03
2022-11-18T18:14:49.060Z,6.10
2022-11-18T18:17:20.346Z,2.87
2022-11-18T18:19:48.591Z,7.03
2022-11-18T18:22:16.807Z,3.20
2022-11-18T18:24:45.047Z,3.33
2022-11-18T18:27:14.676Z,3.00
2022-11-18T18:29:42.891Z,6.33
2022-11-18T18:32:11.168Z,4.30
2022-11-18T18:34:39.514Z,5.97
2022-11-18T18:37:07.717Z,6.50
2022-11-18T18:39:35.920Z,4.37
2022-11-18T18:42:04.204Z,4.50
2022-11-18T18:44:47.605Z,4.40
2022-11-18T18:47:15.877Z,7.17
2022-11-18T18:49:44.206Z,4.70
2022-11-18T18:52:18.314Z,3.93
2022-11-18T18:54:46.496Z,6.10
2022-11-18T18:57:14.706Z,4.63
2022-11-18T18:59:44.348Z,6.60
2022-11-18T19:02:13.673Z,5.03
2022-11-18T19:04:42.664Z,5.97
2022-11-18T19:07:10.976Z,5.27
2022-11-18T19:09:39.639Z,4.70
2022-11-18T19:12:25.874Z,3.70
2022-11-18T19:14:55.544Z,5.07
2022-11-18T19:17:23.810Z,4.80
2022-11-18T19:20:09.584Z,5.03
2022-11-18T19:22:38.373Z,6.63
2022-11-18T19:25:07.591Z,6.23
2022-11-18T19:27:38.797Z,8.97
2022-11-18T19:30:10.465Z,8.27
2022-11-18T19:32:39.623Z,10.43
2022-11-18T19:35:09.073Z,9.93
2022-11-18T19:37:37.545Z,7.97
2022-11-18T19:40:09.191Z,8.77
2022-11-18T19:42:47.625Z,7.57
2022-11-18T19:45:42.137Z,7.60
2022-11-18T19:48:10.370Z,6.97
2022-11-18T19:50:38.637Z,11.00
2022-11-18T19:53:26.846Z,10.50
2022-11-18T19:55:56.152Z,11.70
2022-11-18T19:58:24.776Z,7.00
2022-11-18T20:01:14.109Z,4.33
2022-11-18T20:03:42.746Z,5.70
2022-11-18T20:06:11.524Z,4.20
2022-11-18T20:08:41.306Z,8.37
2022-11-18T20:11:11.850Z,4.50
2022-11-18T20:13:41.670Z,3.23
2022-11-18T20:16:11.962Z,5.47
2022-11-18T20:18:42.334Z,2.63
2022-11-18T20:21:12.178Z,3.33
2022-11-18T20:23:40.375Z,2.43
2022-11-18T20:26:11.116Z,2.60
2022-11-18T20:28:40.928Z,7.80
2022-11-18T20:31:10.762Z,10.57
2022-11-18T20:33:42.231Z,4.73
2022-11-18T20:36:12.321Z,15.30
2022-11-18T20:38:41.357Z,6.77
2022-11-18T20:41:11.603Z,5.17
2022-11-18T20:43:40.758Z,6.00
2022-11-18T20:46:09.661Z,9.40
2022-11-18T20:48:39.370Z,11.73
2022-11-18T20:51:11.679Z,10.70
2022-11-18T20:53:42.093Z,6.30
2022-11-18T20:56:11.112Z,5.87
2022-11-18T20:58:39.435Z,5.67
2022-11-18T21:01:11.621Z,12.37
2022-11-18T21:03:40.919Z,10.23
2022-11-18T21:06:14.175Z,10.70
2022-11-18T21:08:43.672Z,8.83
2022-11-18T21:11:13.491Z,16.43
2022-11-18T21:13:59.853Z,4.13
2022-11-18T21:16:29.001Z,21.77
2022-11-18T21:18:57.738Z,14.50
2022-11-18T21:21:45.535Z,12.00
2022-11-18T21:24:15.269Z,7.07
2022-11-18T21:26:43.969Z,4.50
2022-11-18T21:29:13.845Z,4.27
2022-11-18T21:31:42.725Z,8.73
2022-11-18T21:34:21.663Z,9.90
2022-11-18T21:36:54.550Z,11.27
2022-11-18T21:39:23.798Z,12.37
2022-11-18T21:41:56.283Z,17.77
2022-11-18T21:44:25.784Z,37.73
2022-11-18T21:46:54.118Z,49.63
2022-11-18T21:49:22.874Z,37.33
2022-11-18T21:51:52.671Z,12.93
2022-11-18T21:54:20.960Z,6.57
2022-11-18T21:56:49.400Z,8.23
2022-11-18T21:59:17.903Z,6.53
2022-11-18T22:01:46.336Z,5.53
2022-11-18T22:04:34.519Z,8.20
2022-11-18T22:07:05.254Z,6.13
2022-11-18T22:09:36.762Z,6.57
2022-11-18T22:12:07.873Z,10.57
2022-11-18T22:14:36.251Z,8.30
2022-11-18T22:17:04.873Z,5.20
2022-11-18T22:19:33.074Z,2.80
2022-11-18T22:22:01.515Z,3.10
2022-11-18T22:24:31.181Z,3.30
2022-11-18T22:26:59.400Z,4.13
2022-11-18T22:29:27.674Z,3.17
2022-11-18T22:31:56.060Z,2.70
2022-11-18T22:34:24.332Z,2.77
2022-11-18T22:36:52.528Z,5.00
2022-11-18T22:39:21.209Z,6.77
2022-11-18T22:42:08.331Z,8.90
2022-11-18T22:44:36.593Z,3.80
2022-11-18T22:47:04.858Z,5.37
2022-11-18T22:49:33.097Z,4.57
2022-11-18T22:52:01.320Z,7.73
2022-11-18T22:54:44.765Z,6.30
2022-11-18T22:57:14.367Z,2.93
2022-11-18T22:59:42.624Z,3.30
2022-11-18T23:02:10.867Z,5.73
2022-11-18T23:05:03.873Z,3.63
2022-11-18T23:07:32.191Z,3.43
2022-11-18T23:10:01.198Z,5.83
2022-11-18T23:12:48.479Z,4.63
2022-11-18T23:15:16.896Z,3.97
2022-11-18T23:17:45.111Z,5.07
2022-11-18T23:20:13.435Z,3.43
2022-11-18T23:22:41.603Z,4.73
2022-11-18T23:25:10.004Z,2.40
2022-11-18T23:27:39.594Z,3.73
2022-11-18T23:30:09.074Z,3.27
2022-11-18T23:32:37.244Z,4.10
2022-11-18T23:35:06.031Z,3.90
2022-11-18T23:37:34.300Z,2.80
2022-11-18T23:40:02.541Z,3.27
2022-11-18T23:42:30.799Z,3.13
2022-11-18T23:45:05.029Z,1.90
2022-11-18T23:47:33.612Z,1.93
2022-11-18T23:50:01.816Z,1.60
2022-11-18T23:52:30.013Z,1.50
2022-11-18T23:54:59.477Z,1.47
2022-11-18T23:57:27.975Z,1.30
2022-11-18T23:59:56.176Z,1.57
